sensor_id;sensor_type;location;lat;lon;timestamp;temperature;humidity
34542;DHT22;20784;51.332;12.410;2022-10-04T00:02:01;13.80;99.90
34542;DHT22;20784;51.332;12.410;2022-10-04T00:05:13;13.80;99.90
34542;DHT22;20784;51.332;12.410;2022-10-04T00:07:48;13.80;99.90
34542;DHT22;20784;51.332;12.410;2022-10-04T00:10:44;13.80;99.90
34542;DHT22;20784;51.332;12.410;2022-10-04T00:13:33;13.80;99.90
34542;DHT22;20784;51.332;12.410;2022-10-04T00:16:32;13.80;99.90
34542;DHT22;20784;51.332;12.410;2022-10-04T00:24:35;13.70;99.90
34542;DHT22;20784;51.332;12.410;2022-10-04T00:27:18;13.70;99.90
34542;DHT22;20784;51.332;12.410;2022-10-04T00:32:45;13.60;99.90
34542;DHT22;20784;51.332;12.410;2022-10-04T00:46:19;13.50;99.90
34542;DHT22;20784;51.332;12.410;2022-10-04T00:48:59;13.40;99.90
34542;DHT22;20784;51.332;12.410;2022-10-04T00:51:47;13.50;99.90
34542;DHT22;20784;51.332;12.410;2022-10-04T00:54:25;13.40;99.90
34542;DHT22;20784;51.332;12.410;2022-10-04T00:56:55;13.40;99.90
34542;DHT22;20784;51.332;12.410;2022-10-04T01:07:43;13.40;99.90
34542;DHT22;20784;51.332;12.410;2022-10-04T01:10:13;13.40;99.90
34542;DHT22;20784;51.332;12.410;2022-10-04T01:12:51;13.40;99.90
34542;DHT22;20784;51.332;12.410;2022-10-04T01:15:29;13.50;99.90
34542;DHT22;20784;51.332;12.410;2022-10-04T01:20:59;13.40;99.90
34542;DHT22;20784;51.332;12.410;2022-10-04T01:26:04;13.40;99.90
34542;DHT22;20784;51.332;12.410;2022-10-04T01:28:36;13.30;99.90
34542;DHT22;20784;51.332;12.410;2022-10-04T01:31:05;13.40;99.90
34542;DHT22;20784;51.332;12.410;2022-10-04T01:33:34;13.40;99.90
34542;DHT22;20784;51.332;12.410;2022-10-04T01:36:05;13.30;99.90
34542;DHT22;20784;51.332;12.410;2022-10-04T01:38:31;13.40;99.90
34542;DHT22;20784;51.332;12.410;2022-10-04T01:40:59;13.40;99.90
34542;DHT22;20784;51.332;12.410;2022-10-04T01:43:30;13.40;99.90
34542;DHT22;20784;51.332;12.410;2022-10-04T01:46:01;13.30;99.90
34542;DHT22;20784;51.332;12.410;2022-10-04T01:48:34;13.30;99.90
34542;DHT22;20784;51.332;12.410;2022-10-04T01:51:07;13.30;99.90
34542;DHT22;20784;51.332;12.410;2022-10-04T01:56:51;13.20;99.90
34542;DHT22;20784;51.332;12.410;2022-10-04T01:59:37;13.20;99.90
34542;DHT22;20784;51.332;12.410;2022-10-04T02:05:05;13.30;99.90
34542;DHT22;20784;51.332;12.410;2022-10-04T02:07:33;13.20;99.90
34542;DHT22;20784;51.332;12.410;2022-10-04T02:10:07;13.20;99.90
34542;DHT22;20784;51.332;12.410;2022-10-04T02:12:35;13.20;99.90
34542;DHT22;20784;51.332;12.410;2022-10-04T02:15:06;13.20;99.90
34542;DHT22;20784;51.332;12.410;2022-10-04T02:17:41;13.20;99.90
34542;DHT22;20784;51.332;12.410;2022-10-04T02:20:08;13.20;99.90
34542;DHT22;20784;51.332;12.410;2022-10-04T02:22:39;13.20;99.90
34542;DHT22;20784;51.332;12.410;2022-10-04T02:25:06;13.20;99.90
34542;DHT22;20784;51.332;12.410;2022-10-04T02:27:32;13.10;99.90
34542;DHT22;20784;51.332;12.410;2022-10-04T02:30:04;13.10;99.90
34542;DHT22;20784;51.332;12.410;2022-10-04T02:32:32;13.10;99.90
34542;DHT22;20784;51.332;12.410;2022-10-04T02:35:17;13.10;99.90
34542;DHT22;20784;51.332;12.410;2022-10-04T02:37:46;13.00;99.90
34542;DHT22;20784;51.332;12.410;2022-10-04T02:40:20;13.00;99.90
34542;DHT22;20784;51.332;12.410;2022-10-04T02:43:13;13.00;99.90
34542;DHT22;20784;51.332;12.410;2022-10-04T02:45:45;12.90;99.90
34542;DHT22;20784;51.332;12.410;2022-10-04T02:51:36;12.80;99.90
34542;DHT22;20784;51.332;12.410;2022-10-04T02:56:49;12.60;99.90
34542;DHT22;20784;51.332;12.410;2022-10-04T02:59:20;12.60;99.90
34542;DHT22;20784;51.332;12.410;2022-10-04T03:01:54;12.50;99.90
34542;DHT22;20784;51.332;12.410;2022-10-04T03:04:23;12.40;99.90
34542;DHT22;20784;51.332;12.410;2022-10-04T03:06:54;12.30;99.90
34542;DHT22;20784;51.332;12.410;2022-10-04T03:09:23;12.30;99.90
34542;DHT22;20784;51.332;12.410;2022-10-04T03:11:52;12.20;99.90
34542;DHT22;20784;51.332;12.410;2022-10-04T03:14:37;12.10;99.90
34542;DHT22;20784;51.332;12.410;2022-10-04T03:17:07;12.10;99.90
34542;DHT22;20784;51.332;12.410;2022-10-04T03:19:43;12.10;99.90
34542;DHT22;20784;51.332;12.410;2022-10-04T03:22:47;12.10;99.90
34542;DHT22;20784;51.332;12.410;2022-10-04T03:25:24;11.90;99.90
34542;DHT22;20784;51.332;12.410;2022-10-04T03:28:00;12.00;99.90
34542;DHT22;20784;51.332;12.410;2022-10-04T03:30:27;12.00;99.90
34542;DHT22;20784;51.332;12.410;2022-10-04T03:32:53;12.00;99.90
34542;DHT22;20784;51.332;12.410;2022-10-04T03:35:31;11.90;99.90
34542;DHT22;20784;51.332;12.410;2022-10-04T03:38:00;11.90;99.90
34542;DHT22;20784;51.332;12.410;2022-10-04T03:40:31;11.90;99.90
34542;DHT22;20784;51.332;12.410;2022-10-04T03:43:03;11.80;99.90
34542;DHT22;20784;51.332;12.410;2022-10-04T03:45:31;11.80;99.90
34542;DHT22;20784;51.332;12.410;2022-10-04T03:48:08;11.80;99.90
34542;DHT22;20784;51.332;12.410;2022-10-04T03:50:45;11.70;99.90
34542;DHT22;20784;51.332;12.410;2022-10-04T03:56:39;11.70;99.90
34542;DHT22;20784;51.332;12.410;2022-10-04T03:59:26;11.70;99.90
34542;DHT22;20784;51.332;12.410;2022-10-04T04:02:33;11.60;99.90
34542;DHT22;20784;51.332;12.410;2022-10-04T04:08:06;11.50;99.90
34542;DHT22;20784;51.332;12.410;2022-10-04T04:10:56;11.60;99.90
34542;DHT22;20784;51.332;12.410;2022-10-04T04:13:45;11.50;99.90
34542;DHT22;20784;51.332;12.410;2022-10-04T04:16:12;11.50;99.90
34542;DHT22;20784;51.332;12.410;2022-10-04T04:18:41;11.60;99.90
34542;DHT22;20784;51.332;12.410;2022-10-04T04:21:08;11.50;99.90
34542;DHT22;20784;51.332;12.410;2022-10-04T04:23:47;11.60;99.90
34542;DHT22;20784;51.332;12.410;2022-10-04T04:26:45;11.60;99.90
34542;DHT22;20784;51.332;12.410;2022-10-04T04:32:25;11.50;99.90
34542;DHT22;20784;51.332;12.410;2022-10-04T04:35:03;11.40;99.90
34542;DHT22;20784;51.332;12.410;2022-10-04T04:37:54;11.30;99.90
34542;DHT22;20784;51.332;12.410;2022-10-04T04:40:31;11.40;99.90
34542;DHT22;20784;51.332;12.410;2022-10-04T04:43:09;11.30;99.90
34542;DHT22;20784;51.332;12.410;2022-10-04T04:45:41;11.30;99.90
34542;DHT22;20784;51.332;12.410;2022-10-04T04:48:13;11.30;99.90
34542;DHT22;20784;51.332;12.410;2022-10-04T04:50:51;11.20;99.90
34542;DHT22;20784;51.332;12.410;2022-10-04T04:53:22;11.20;99.90
34542;DHT22;20784;51.332;12.410;2022-10-04T04:55:54;11.20;99.90
34542;DHT22;20784;51.332;12.410;2022-10-04T04:58:25;11.20;99.90
34542;DHT22;20784;51.332;12.410;2022-10-04T05:00:56;11.20;99.90
34542;DHT22;20784;51.332;12.410;2022-10-04T05:03:22;11.30;99.90
34542;DHT22;20784;51.332;12.410;2022-10-04T05:05:48;11.30;99.90
34542;DHT22;20784;51.332;12.410;2022-10-04T05:08:23;11.20;99.90
34542;DHT22;20784;51.332;12.410;2022-10-04T05:13:41;11.30;99.90
34542;DHT22;20784;51.332;12.410;2022-10-04T05:16:20;11.40;99.90
34542;DHT22;20784;51.332;12.410;2022-10-04T05:18:47;11.40;99.90
34542;DHT22;20784;51.332;12.410;2022-10-04T05:21:24;11.50;99.90
34542;DHT22;20784;51.332;12.410;2022-10-04T05:23:51;11.50;99.90
34542;DHT22;20784;51.332;12.410;2022-10-04T05:26:23;11.50;99.90
34542;DHT22;20784;51.332;12.410;2022-10-04T05:28:51;11.60;99.90
34542;DHT22;20784;51.332;12.410;2022-10-04T05:31:24;11.50;99.90
34542;DHT22;20784;51.332;12.410;2022-10-04T05:33:57;11.40;99.90
34542;DHT22;20784;51.332;12.410;2022-10-04T05:36:44;11.60;99.90
34542;DHT22;20784;51.332;12.410;2022-10-04T05:44:35;11.50;99.90
34542;DHT22;20784;51.332;12.410;2022-10-04T05:47:05;11.80;99.90
34542;DHT22;20784;51.332;12.410;2022-10-04T05:49:44;11.80;99.90
34542;DHT22;20784;51.332;12.410;2022-10-04T05:52:33;11.90;99.90
34542;DHT22;20784;51.332;12.410;2022-10-04T06:06:41;12.00;99.90
34542;DHT22;20784;51.332;12.410;2022-10-04T06:09:50;12.10;99.90
34542;DHT22;20784;51.332;12.410;2022-10-04T06:21:04;12.00;99.90
34542;DHT22;20784;51.332;12.410;2022-10-04T06:26:36;12.20;99.90
34542;DHT22;20784;51.332;12.410;2022-10-04T06:29:14;12.20;99.90
34542;DHT22;20784;51.332;12.410;2022-10-04T06:43:30;12.40;99.90
34542;DHT22;20784;51.332;12.410;2022-10-04T06:46:15;12.50;99.90
34542;DHT22;20784;51.332;12.410;2022-10-04T06:49:01;12.50;99.90
34542;DHT22;20784;51.332;12.410;2022-10-04T06:51:50;12.60;99.90
34542;DHT22;20784;51.332;12.410;2022-10-04T06:57:02;12.70;99.90
34542;DHT22;20784;51.332;12.410;2022-10-04T07:02:25;12.80;99.90
34542;DHT22;20784;51.332;12.410;2022-10-04T07:07:37;13.00;99.90
34542;DHT22;20784;51.332;12.410;2022-10-04T07:12:42;13.20;99.90
34542;DHT22;20784;51.332;12.410;2022-10-04T07:15:23;13.40;99.90
34542;DHT22;20784;51.332;12.410;2022-10-04T07:17:55;13.50;99.90
34542;DHT22;20784;51.332;12.410;2022-10-04T07:20:27;13.60;99.90
34542;DHT22;20784;51.332;12.410;2022-10-04T07:23:14;13.70;99.90
34542;DHT22;20784;51.332;12.410;2022-10-04T07:25:53;13.70;99.90
34542;DHT22;20784;51.332;12.410;2022-10-04T07:28:29;13.60;99.90
34542;DHT22;20784;51.332;12.410;2022-10-04T07:31:33;13.70;99.90
34542;DHT22;20784;51.332;12.410;2022-10-04T07:34:49;13.70;99.90
34542;DHT22;20784;51.332;12.410;2022-10-04T07:36:53;13.90;99.90
34542;DHT22;20784;51.332;12.410;2022-10-04T07:39:39;14.00;99.90
34542;DHT22;20784;51.332;12.410;2022-10-04T07:42:20;14.00;99.90
34542;DHT22;20784;51.332;12.410;2022-10-04T07:47:23;14.30;99.90
34542;DHT22;20784;51.332;12.410;2022-10-04T07:49:53;14.50;99.90
34542;DHT22;20784;51.332;12.410;2022-10-04T07:52:42;14.70;99.90
34542;DHT22;20784;51.332;12.410;2022-10-04T07:55:25;14.90;99.90
34542;DHT22;20784;51.332;12.410;2022-10-04T08:21:01;15.10;99.90
34542;DHT22;20784;51.332;12.410;2022-10-04T08:29:31;15.20;99.90
34542;DHT22;20784;51.332;12.410;2022-10-04T08:35:29;15.30;99.90
34542;DHT22;20784;51.332;12.410;2022-10-04T08:38:42;15.40;99.90
34542;DHT22;20784;51.332;12.410;2022-10-04T08:41:18;15.40;99.90
34542;DHT22;20784;51.332;12.410;2022-10-04T08:44:14;15.50;99.90
34542;DHT22;20784;51.332;12.410;2022-10-04T08:49:52;15.70;99.90
34542;DHT22;20784;51.332;12.410;2022-10-04T08:52:54;15.80;99.90
34542;DHT22;20784;51.332;12.410;2022-10-04T08:55:45;15.70;99.90
34542;DHT22;20784;51.332;12.410;2022-10-04T08:58:43;15.40;99.90
34542;DHT22;20784;51.332;12.410;2022-10-04T09:11:15;16.10;99.90
34542;DHT22;20784;51.332;12.410;2022-10-04T09:16:56;16.10;99.90
34542;DHT22;20784;51.332;12.410;2022-10-04T09:19:45;16.10;99.90
34542;DHT22;20784;51.332;12.410;2022-10-04T09:22:39;16.00;99.90
34542;DHT22;20784;51.332;12.410;2022-10-04T09:25:20;15.90;99.90
34542;DHT22;20784;51.332;12.410;2022-10-04T09:28:01;15.90;99.90
34542;DHT22;20784;51.332;12.410;2022-10-04T09:33:30;16.00;99.90
34542;DHT22;20784;51.332;12.410;2022-10-04T09:36:25;16.20;99.90
34542;DHT22;20784;51.332;12.410;2022-10-04T09:42:01;16.20;99.90
34542;DHT22;20784;51.332;12.410;2022-10-04T09:45:05;16.40;99.90
34542;DHT22;20784;51.332;12.410;2022-10-04T09:47:44;16.50;99.90
34542;DHT22;20784;51.332;12.410;2022-10-04T10:00:51;17.70;99.90
34542;DHT22;20784;51.332;12.410;2022-10-04T10:03:39;17.70;99.90
34542;DHT22;20784;51.332;12.410;2022-10-04T10:06:23;18.10;99.90
34542;DHT22;20784;51.332;12.410;2022-10-04T10:09:09;19.00;99.90
34542;DHT22;20784;51.332;12.410;2022-10-04T10:15:06;20.30;99.90
34542;DHT22;20784;51.332;12.410;2022-10-04T10:17:48;21.10;99.90
34542;DHT22;20784;51.332;12.410;2022-10-04T10:20:48;21.80;99.90
34542;DHT22;20784;51.332;12.410;2022-10-04T10:31:57;22.80;99.90
34542;DHT22;20784;51.332;12.410;2022-10-04T10:43:05;23.40;99.90
34542;DHT22;20784;51.332;12.410;2022-10-04T11:06:15;25.50;99.90
34542;DHT22;20784;51.332;12.410;2022-10-04T11:20:43;23.90;99.90
34542;DHT22;20784;51.332;12.410;2022-10-04T11:37:47;24.30;99.90
34542;DHT22;20784;51.332;12.410;2022-10-04T11:45:55;25.50;99.90
34542;DHT22;20784;51.332;12.410;2022-10-04T11:52:00;25.10;99.90
34542;DHT22;20784;51.332;12.410;2022-10-04T11:57:42;24.30;99.90
34542;DHT22;20784;51.332;12.410;2022-10-04T12:00:19;23.80;99.90
34542;DHT22;20784;51.332;12.410;2022-10-04T12:08:53;23.60;99.90
34542;DHT22;20784;51.332;12.410;2022-10-04T12:14:34;23.20;99.90
34542;DHT22;20784;51.332;12.410;2022-10-04T12:31:13;23.70;99.90
34542;DHT22;20784;51.332;12.410;2022-10-04T12:48:13;23.50;99.90
34542;DHT22;20784;51.332;12.410;2022-10-04T12:50:58;23.70;99.90
34542;DHT22;20784;51.332;12.410;2022-10-04T13:04:16;22.30;99.90
34542;DHT22;20784;51.332;12.410;2022-10-04T13:15:33;21.90;99.90
34542;DHT22;20784;51.332;12.410;2022-10-04T13:18:30;22.10;99.90
34542;DHT22;20784;51.332;12.410;2022-10-04T13:21:10;22.30;99.90
34542;DHT22;20784;51.332;12.410;2022-10-04T13:57:59;20.80;99.90
34542;DHT22;20784;51.332;12.410;2022-10-04T14:03:17;20.40;99.90
34542;DHT22;20784;51.332;12.410;2022-10-04T14:29:06;20.20;99.90
34542;DHT22;20784;51.332;12.410;2022-10-04T14:43:40;19.70;99.90
34542;DHT22;20784;51.332;12.410;2022-10-04T15:01:25;19.40;99.90
34542;DHT22;20784;51.332;12.410;2022-10-04T15:07:38;19.20;99.90
34542;DHT22;20784;51.332;12.410;2022-10-04T15:10:35;19.20;99.90
34542;DHT22;20784;51.332;12.410;2022-10-04T15:19:09;18.90;99.90
34542;DHT22;20784;51.332;12.410;2022-10-04T15:24:21;18.80;99.90
34542;DHT22;20784;51.332;12.410;2022-10-04T15:30:22;18.70;99.90
34542;DHT22;20784;51.332;12.410;2022-10-04T15:33:14;18.60;99.90
34542;DHT22;20784;51.332;12.410;2022-10-04T15:42:13;18.70;99.90
34542;DHT22;20784;51.332;12.410;2022-10-04T15:56:46;18.40;99.90
34542;DHT22;20784;51.332;12.410;2022-10-04T15:59:39;18.40;99.90
34542;DHT22;20784;51.332;12.410;2022-10-04T16:08:05;18.20;99.90
34542;DHT22;20784;51.332;12.410;2022-10-04T16:32:24;17.90;99.90
34542;DHT22;20784;51.332;12.410;2022-10-04T16:35:06;17.80;99.90
34542;DHT22;20784;51.332;12.410;2022-10-04T16:57:14;17.20;99.90
34542;DHT22;20784;51.332;12.410;2022-10-04T16:59:48;17.20;99.90
34542;DHT22;20784;51.332;12.410;2022-10-04T17:02:23;17.10;99.90
34542;DHT22;20784;51.332;12.410;2022-10-04T17:13:37;16.90;99.90
34542;DHT22;20784;51.332;12.410;2022-10-04T17:19:20;16.90;99.90
34542;DHT22;20784;51.332;12.410;2022-10-04T17:21:56;16.80;99.90
34542;DHT22;20784;51.332;12.410;2022-10-04T17:28:03;16.70;99.90
34542;DHT22;20784;51.332;12.410;2022-10-04T17:36:15;16.50;99.90
34542;DHT22;20784;51.332;12.410;2022-10-04T17:41:16;16.40;99.90
34542;DHT22;20784;51.332;12.410;2022-10-04T17:47:06;16.40;99.90
34542;DHT22;20784;51.332;12.410;2022-10-04T17:50:09;16.30;99.90
34542;DHT22;20784;51.332;12.410;2022-10-04T17:53:08;16.20;99.90
34542;DHT22;20784;51.332;12.410;2022-10-04T17:56:02;16.10;99.90
34542;DHT22;20784;51.332;12.410;2022-10-04T17:58:44;16.10;99.90
34542;DHT22;20784;51.332;12.410;2022-10-04T18:06:58;16.00;99.90
34542;DHT22;20784;51.332;12.410;2022-10-04T18:09:34;15.90;99.90
34542;DHT22;20784;51.332;12.410;2022-10-04T18:12:22;15.80;99.90
34542;DHT22;20784;51.332;12.410;2022-10-04T18:17:43;15.80;99.90
34542;DHT22;20784;51.332;12.410;2022-10-04T18:20:26;15.80;99.90
34542;DHT22;20784;51.332;12.410;2022-10-04T18:23:18;15.70;99.90
34542;DHT22;20784;51.332;12.410;2022-10-04T18:26:15;15.70;99.90
34542;DHT22;20784;51.332;12.410;2022-10-04T18:28:45;15.60;99.90
34542;DHT22;20784;51.332;12.410;2022-10-04T18:31:30;15.60;99.90
34542;DHT22;20784;51.332;12.410;2022-10-04T18:34:25;15.50;99.90
34542;DHT22;20784;51.332;12.410;2022-10-04T18:37:17;15.50;99.90
34542;DHT22;20784;51.332;12.410;2022-10-04T18:39:49;15.50;99.90
34542;DHT22;20784;51.332;12.410;2022-10-04T18:42:41;15.40;99.90
34542;DHT22;20784;51.332;12.410;2022-10-04T18:45:19;15.30;99.90
34542;DHT22;20784;51.332;12.410;2022-10-04T18:47:45;15.30;99.90
34542;DHT22;20784;51.332;12.410;2022-10-04T18:55:57;15.20;99.90
34542;DHT22;20784;51.332;12.410;2022-10-04T18:58:47;15.20;99.90
34542;DHT22;20784;51.332;12.410;2022-10-04T19:10:29;15.00;99.90
34542;DHT22;20784;51.332;12.410;2022-10-04T19:13:01;15.00;99.90
34542;DHT22;20784;51.332;12.410;2022-10-04T19:16:11;14.90;99.90
34542;DHT22;20784;51.332;12.410;2022-10-04T19:21:38;14.70;99.90
34542;DHT22;20784;51.332;12.410;2022-10-04T19:24:48;14.70;99.90
34542;DHT22;20784;51.332;12.410;2022-10-04T19:27:26;14.60;99.90
34542;DHT22;20784;51.332;12.410;2022-10-04T19:43:44;14.60;99.90
34542;DHT22;20784;51.332;12.410;2022-10-04T19:48:50;14.40;99.90
34542;DHT22;20784;51.332;12.410;2022-10-04T19:51:39;14.40;99.90
34542;DHT22;20784;51.332;12.410;2022-10-04T19:54:12;14.40;99.90
34542;DHT22;20784;51.332;12.410;2022-10-04T19:56:46;14.40;99.90
34542;DHT22;20784;51.332;12.410;2022-10-04T19:59:20;14.30;99.90
34542;DHT22;20784;51.332;12.410;2022-10-04T20:01:51;14.20;99.90
34542;DHT22;20784;51.332;12.410;2022-10-04T20:04:17;14.20;99.90
34542;DHT22;20784;51.332;12.410;2022-10-04T20:07:26;14.10;99.90
34542;DHT22;20784;51.332;12.410;2022-10-04T20:10:27;14.10;99.90
34542;DHT22;20784;51.332;12.410;2022-10-04T20:15:53;14.10;99.90
34542;DHT22;20784;51.332;12.410;2022-10-04T20:26:10;14.00;99.90
34542;DHT22;20784;51.332;12.410;2022-10-04T20:28:41;14.00;99.90
34542;DHT22;20784;51.332;12.410;2022-10-04T20:33:50;13.80;99.90
34542;DHT22;20784;51.332;12.410;2022-10-04T20:38:51;13.70;99.90
34542;DHT22;20784;51.332;12.410;2022-10-04T20:44:42;13.60;99.90
34542;DHT22;20784;51.332;12.410;2022-10-04T20:50:17;13.50;99.90
34542;DHT22;20784;51.332;12.410;2022-10-04T20:52:48;13.50;99.90
34542;DHT22;20784;51.332;12.410;2022-10-04T20:55:48;13.50;99.90
34542;DHT22;20784;51.332;12.410;2022-10-04T21:01:28;13.50;99.90
34542;DHT22;20784;51.332;12.410;2022-10-04T21:04:27;13.50;99.90
34542;DHT22;20784;51.332;12.410;2022-10-04T21:07:05;13.50;99.90
34542;DHT22;20784;51.332;12.410;2022-10-04T21:09:38;13.40;99.90
34542;DHT22;20784;51.332;12.410;2022-10-04T21:12:38;13.40;99.90
34542;DHT22;20784;51.332;12.410;2022-10-04T21:15:28;13.40;99.90
34542;DHT22;20784;51.332;12.410;2022-10-04T21:18:06;13.30;99.90
34542;DHT22;20784;51.332;12.410;2022-10-04T21:20:49;13.30;99.90
34542;DHT22;20784;51.332;12.410;2022-10-04T21:23:24;13.20;99.90
34542;DHT22;20784;51.332;12.410;2022-10-04T21:28:42;13.20;99.90
34542;DHT22;20784;51.332;12.410;2022-10-04T21:31:08;13.10;99.90
34542;DHT22;20784;51.332;12.410;2022-10-04T21:36:26;13.10;99.90
34542;DHT22;20784;51.332;12.410;2022-10-04T21:38:51;13.00;99.90
34542;DHT22;20784;51.332;12.410;2022-10-04T21:41:18;13.00;99.90
34542;DHT22;20784;51.332;12.410;2022-10-04T21:43:46;13.00;99.90
34542;DHT22;20784;51.332;12.410;2022-10-04T21:46:19;13.00;99.90
34542;DHT22;20784;51.332;12.410;2022-10-04T21:48:50;13.00;99.90
34542;DHT22;20784;51.332;12.410;2022-10-04T21:51:19;12.90;99.90
34542;DHT22;20784;51.332;12.410;2022-10-04T21:53:52;13.00;99.90
34542;DHT22;20784;51.332;12.410;2022-10-04T21:56:20;13.00;99.90
34542;DHT22;20784;51.332;12.410;2022-10-04T21:58:48;13.00;99.90
34542;DHT22;20784;51.332;12.410;2022-10-04T22:01:26;13.00;99.90
34542;DHT22;20784;51.332;12.410;2022-10-04T22:04:07;12.90;99.90
34542;DHT22;20784;51.332;12.410;2022-10-04T22:06:39;13.00;99.90
34542;DHT22;20784;51.332;12.410;2022-10-04T22:09:08;13.10;99.90
34542;DHT22;20784;51.332;12.410;2022-10-04T22:11:34;13.00;99.90
34542;DHT22;20784;51.332;12.410;2022-10-04T22:14:00;13.10;99.90
34542;DHT22;20784;51.332;12.410;2022-10-04T22:16:28;12.90;99.90
34542;DHT22;20784;51.332;12.410;2022-10-04T22:19:01;13.00;99.90
34542;DHT22;20784;51.332;12.410;2022-10-04T22:21:30;12.90;99.90
34542;DHT22;20784;51.332;12.410;2022-10-04T22:23:58;12.90;99.90
34542;DHT22;20784;51.332;12.410;2022-10-04T22:26:30;13.00;99.90
34542;DHT22;20784;51.332;12.410;2022-10-04T22:28:58;13.00;99.90
34542;DHT22;20784;51.332;12.410;2022-10-04T22:31:29;12.90;99.90
34542;DHT22;20784;51.332;12.410;2022-10-04T22:33:58;13.00;99.90
34542;DHT22;20784;51.332;12.410;2022-10-04T22:36:30;13.00;99.90
34542;DHT22;20784;51.332;12.410;2022-10-04T22:39:20;13.10;99.90
34542;DHT22;20784;51.332;12.410;2022-10-04T22:41:48;13.10;99.90
34542;DHT22;20784;51.332;12.410;2022-10-04T22:44:36;13.10;99.90
34542;DHT22;20784;51.332;12.410;2022-10-04T22:47:04;13.00;99.90
34542;DHT22;20784;51.332;12.410;2022-10-04T22:49:35;13.00;99.90
34542;DHT22;20784;51.332;12.410;2022-10-04T22:52:22;12.90;99.90
34542;DHT22;20784;51.332;12.410;2022-10-04T22:54:52;12.80;99.90
34542;DHT22;20784;51.332;12.410;2022-10-04T22:57:18;12.80;99.90
34542;DHT22;20784;51.332;12.410;2022-10-04T22:59:49;12.70;99.90
34542;DHT22;20784;51.332;12.410;2022-10-04T23:02:24;12.80;99.90
34542;DHT22;20784;51.332;12.410;2022-10-04T23:04:55;12.70;99.90
34542;DHT22;20784;51.332;12.410;2022-10-04T23:07:21;12.70;99.90
34542;DHT22;20784;51.332;12.410;2022-10-04T23:09:48;12.70;99.90
34542;DHT22;20784;51.332;12.410;2022-10-04T23:12:14;12.70;99.90
34542;DHT22;20784;51.332;12.410;2022-10-04T23:14:40;12.60;99.90
34542;DHT22;20784;51.332;12.410;2022-10-04T23:17:23;12.60;99.90
34542;DHT22;20784;51.332;12.410;2022-10-04T23:20:08;12.60;99.90
34542;DHT22;20784;51.332;12.410;2022-10-04T23:22:36;12.60;99.90
34542;DHT22;20784;51.332;12.410;2022-10-04T23:25:21;12.70;99.90
34542;DHT22;20784;51.332;12.410;2022-10-04T23:27:50;12.60;99.90
34542;DHT22;20784;51.332;12.410;2022-10-04T23:30:20;12.50;99.90
34542;DHT22;20784;51.332;12.410;2022-10-04T23:32:49;12.50;99.90
34542;DHT22;20784;51.332;12.410;2022-10-04T23:35:22;12.50;99.90
34542;DHT22;20784;51.332;12.410;2022-10-04T23:37:57;12.50;99.90
34542;DHT22;20784;51.332;12.410;2022-10-04T23:40:24;12.50;99.90
34542;DHT22;20784;51.332;12.410;2022-10-04T23:42:53;12.50;99.90
34542;DHT22;20784;51.332;12.410;2022-10-04T23:45:21;12.50;99.90
34542;DHT22;20784;51.332;12.410;2022-10-04T23:47:54;12.50;99.90
34542;DHT22;20784;51.332;12.410;2022-10-04T23:50:24;12.50;99.90
34542;DHT22;20784;51.332;12.410;2022-10-04T23:52:53;12.50;99.90
34542;DHT22;20784;51.332;12.410;2022-10-04T23:55:31;12.30;99.90
34542;DHT22;20784;51.332;12.410;2022-10-04T23:58:15;12.40;99.90
